sensor_id;sensor_type;location;lat;lon;timestamp;pressure;altitude;pressure_sealevel;temperature;humidity
13968;BME280;39536;52.198;9.920;2023-03-07T00:00:10;98942.91;;;2.73;100.00
13968;BME280;39536;52.198;9.920;2023-03-07T00:02:39;98934.31;;;2.74;100.00
13968;BME280;39536;52.198;9.920;2023-03-07T00:05:07;98931.72;;;2.74;100.00
13968;BME280;39536;52.198;9.920;2023-03-07T00:07:33;98929.13;;;2.75;100.00
13968;BME280;39536;52.198;9.920;2023-03-07T00:10:01;98931.66;;;2.77;100.00
13968;BME280;39536;52.198;9.920;2023-03-07T00:12:27;98914.44;;;2.81;100.00
13968;BME280;39536;52.198;9.920;2023-03-07T00:14:54;98912.66;;;2.83;100.00
13968;BME280;39536;52.198;9.920;2023-03-07T00:17:21;98905.69;;;2.86;100.00
13968;BME280;39536;52.198;9.920;2023-03-07T00:19:49;98893.69;;;2.87;100.00
13968;BME280;39536;52.198;9.920;2023-03-07T00:22:16;98893.88;;;2.81;100.00
13968;BME280;39536;52.198;9.920;2023-03-07T00:24:42;98874.06;;;2.84;100.00
13968;BME280;39536;52.198;9.920;2023-03-07T00:27:09;98877.56;;;2.82;100.00
13968;BME280;39536;52.198;9.920;2023-03-07T00:29:36;98874.16;;;2.80;100.00
13968;BME280;39536;52.198;9.920;2023-03-07T00:32:02;98863.84;;;2.81;100.00
13968;BME280;39536;52.198;9.920;2023-03-07T00:34:29;98855.41;;;2.76;100.00
13968;BME280;39536;52.198;9.920;2023-03-07T00:36:57;98855.31;;;2.81;100.00
13968;BME280;39536;52.198;9.920;2023-03-07T00:39:24;98851.03;;;2.80;100.00
13968;BME280;39536;52.198;9.920;2023-03-07T00:41:50;98842.38;;;2.84;100.00
13968;BME280;39536;52.198;9.920;2023-03-07T00:44:17;98836.44;;;2.80;100.00
13968;BME280;39536;52.198;9.920;2023-03-07T00:46:44;98827.06;;;2.79;100.00
13968;BME280;39536;52.198;9.920;2023-03-07T00:49:10;98830.38;;;2.83;100.00
13968;BME280;39536;52.198;9.920;2023-03-07T00:51:37;98821.00;;;2.82;100.00
13968;BME280;39536;52.198;9.920;2023-03-07T00:54:05;98818.41;;;2.82;100.00
13968;BME280;39536;52.198;9.920;2023-03-07T00:56:32;98809.81;;;2.83;100.00
13968;BME280;39536;52.198;9.920;2023-03-07T00:58:58;98809.94;;;2.78;100.00
13968;BME280;39536;52.198;9.920;2023-03-07T01:01:25;98795.44;;;2.75;100.00
13968;BME280;39536;52.198;9.920;2023-03-07T01:03:52;98799.00;;;2.71;100.00
13968;BME280;39536;52.198;9.920;2023-03-07T01:06:22;98792.13;;;2.72;100.00
13968;BME280;39536;52.198;9.920;2023-03-07T01:08:49;98782.72;;;2.71;100.00
13968;BME280;39536;52.198;9.920;2023-03-07T01:11:17;98787.84;;;2.71;100.00
13968;BME280;39536;52.198;9.920;2023-03-07T01:13:44;98783.69;;;2.68;100.00
13968;BME280;39536;52.198;9.920;2023-03-07T01:16:13;98776.06;;;2.65;100.00
13968;BME280;39536;52.198;9.920;2023-03-07T01:18:41;98767.38;;;2.68;100.00
13968;BME280;39536;52.198;9.920;2023-03-07T01:21:12;98762.31;;;2.66;100.00
13968;BME280;39536;52.198;9.920;2023-03-07T01:23:39;98758.16;;;2.62;100.00
13968;BME280;39536;52.198;9.920;2023-03-07T01:26:06;98742.66;;;2.64;100.00
13968;BME280;39536;52.198;9.920;2023-03-07T01:28:34;98754.75;;;2.62;100.00
13968;BME280;39536;52.198;9.920;2023-03-07T01:31:00;98744.31;;;2.66;100.00
13968;BME280;39536;52.198;9.920;2023-03-07T01:33:27;98740.00;;;2.67;100.00
13968;BME280;39536;52.198;9.920;2023-03-07T01:38:29;98727.31;;;2.62;100.00
13968;BME280;39536;52.198;9.920;2023-03-07T01:40:58;98726.34;;;2.65;100.00
13968;BME280;39536;52.198;9.920;2023-03-07T01:43:27;98717.13;;;2.59;100.00
13968;BME280;39536;52.198;9.920;2023-03-07T01:46:23;98700.75;;;2.62;100.00
13968;BME280;39536;52.198;9.920;2023-03-07T01:48:55;98707.56;;;2.63;100.00
13968;BME280;39536;52.198;9.920;2023-03-07T01:51:23;98700.84;;;2.59;100.00
13968;BME280;39536;52.198;9.920;2023-03-07T01:53:51;98690.38;;;2.65;100.00
13968;BME280;39536;52.198;9.920;2023-03-07T01:56:20;98677.81;;;2.56;100.00
13968;BME280;39536;52.198;9.920;2023-03-07T01:58:47;98680.84;;;2.40;100.00
13968;BME280;39536;52.198;9.920;2023-03-07T02:01:15;98686.75;;;2.42;100.00
13968;BME280;39536;52.198;9.920;2023-03-07T02:03:46;98673.06;;;2.42;100.00
13968;BME280;39536;52.198;9.920;2023-03-07T02:06:16;98678.19;;;2.43;100.00
13968;BME280;39536;52.198;9.920;2023-03-07T02:08:45;98670.47;;;2.43;100.00
13968;BME280;39536;52.198;9.920;2023-03-07T02:11:14;98670.50;;;2.42;100.00
13968;BME280;39536;52.198;9.920;2023-03-07T02:13:41;98663.50;;;2.47;100.00
13968;BME280;39536;52.198;9.920;2023-03-07T02:16:08;98676.28;;;2.48;100.00
13968;BME280;39536;52.198;9.920;2023-03-07T02:18:40;98654.16;;;2.44;100.00
13968;BME280;39536;52.198;9.920;2023-03-07T02:21:14;98658.69;;;2.36;100.00
13968;BME280;39536;52.198;9.920;2023-03-07T02:23:49;98663.78;;;2.38;100.00
13968;BME280;39536;52.198;9.920;2023-03-07T02:26:22;98656.94;;;2.37;100.00
13968;BME280;39536;52.198;9.920;2023-03-07T02:28:53;98659.66;;;2.32;100.00
13968;BME280;39536;52.198;9.920;2023-03-07T02:31:20;98653.63;;;2.33;100.00
13968;BME280;39536;52.198;9.920;2023-03-07T02:33:46;98646.16;;;2.25;100.00
13968;BME280;39536;52.198;9.920;2023-03-07T02:36:16;98661.69;;;2.21;100.00
13968;BME280;39536;52.198;9.920;2023-03-07T02:38:47;98659.91;;;2.24;100.00
13968;BME280;39536;52.198;9.920;2023-03-07T02:41:16;98672.88;;;2.20;100.00
13968;BME280;39536;52.198;9.920;2023-03-07T02:43:44;98662.56;;;2.21;100.00
13968;BME280;39536;52.198;9.920;2023-03-07T02:46:12;98665.03;;;2.24;100.00
13968;BME280;39536;52.198;9.920;2023-03-07T02:48:39;98659.84;;;2.26;100.00
13968;BME280;39536;52.198;9.920;2023-03-07T02:51:05;98663.41;;;2.22;100.00
13968;BME280;39536;52.198;9.920;2023-03-07T02:53:32;98674.63;;;2.18;100.00
13968;BME280;39536;52.198;9.920;2023-03-07T02:55:59;98670.38;;;2.17;100.00
13968;BME280;39536;52.198;9.920;2023-03-07T02:58:25;98672.91;;;2.18;100.00
13968;BME280;39536;52.198;9.920;2023-03-07T03:00:52;98664.97;;;2.26;100.00
13968;BME280;39536;52.198;9.920;2023-03-07T03:03:20;98665.03;;;2.24;100.00
13968;BME280;39536;52.198;9.920;2023-03-07T03:05:47;98653.97;;;2.22;100.00
13968;BME280;39536;52.198;9.920;2023-03-07T03:08:13;98646.75;;;2.34;100.00
13968;BME280;39536;52.198;9.920;2023-03-07T03:10:40;98664.78;;;2.32;100.00
13968;BME280;39536;52.198;9.920;2023-03-07T03:13:07;98646.09;;;2.27;100.00
13968;BME280;39536;52.198;9.920;2023-03-07T03:15:33;98640.94;;;2.28;100.00
13968;BME280;39536;52.198;9.920;2023-03-07T03:18:00;98649.47;;;2.29;100.00
13968;BME280;39536;52.198;9.920;2023-03-07T03:20:28;98642.56;;;2.31;100.00
13968;BME280;39536;52.198;9.920;2023-03-07T03:22:55;98634.78;;;2.34;100.00
13968;BME280;39536;52.198;9.920;2023-03-07T03:25:21;98638.03;;;2.39;100.00
13968;BME280;39536;52.198;9.920;2023-03-07T03:27:49;98631.94;;;2.43;100.00
13968;BME280;39536;52.198;9.920;2023-03-07T03:30:16;98627.66;;;2.42;100.00
13968;BME280;39536;52.198;9.920;2023-03-07T03:32:43;98637.19;;;2.39;100.00
13968;BME280;39536;52.198;9.920;2023-03-07T03:35:10;98626.88;;;2.40;100.00
13968;BME280;39536;52.198;9.920;2023-03-07T03:37:39;98627.66;;;2.42;100.00
13968;BME280;39536;52.198;9.920;2023-03-07T03:40:07;98636.97;;;2.46;100.00
13968;BME280;39536;52.198;9.920;2023-03-07T03:42:39;98645.53;;;2.47;100.00
13968;BME280;39536;52.198;9.920;2023-03-07T03:45:07;98647.06;;;2.52;100.00
13968;BME280;39536;52.198;9.920;2023-03-07T03:47:34;98637.63;;;2.53;100.00
13968;BME280;39536;52.198;9.920;2023-03-07T03:50:01;98629.94;;;2.51;100.00
13968;BME280;39536;52.198;9.920;2023-03-07T03:52:28;98631.41;;;2.60;100.00
13968;BME280;39536;52.198;9.920;2023-03-07T03:54:56;98634.72;;;2.64;100.00
13968;BME280;39536;52.198;9.920;2023-03-07T03:57:22;98626.22;;;2.62;100.00
13968;BME280;39536;52.198;9.920;2023-03-07T03:59:49;98627.75;;;2.67;100.00
13968;BME280;39536;52.198;9.920;2023-03-07T04:02:16;98622.75;;;2.63;100.00
13968;BME280;39536;52.198;9.920;2023-03-07T04:04:43;98616.63;;;2.67;100.00
13968;BME280;39536;52.198;9.920;2023-03-07T04:07:09;98626.88;;;2.68;100.00
13968;BME280;39536;52.198;9.920;2023-03-07T04:09:36;98622.41;;;2.73;100.00
13968;BME280;39536;52.198;9.920;2023-03-07T04:12:04;98617.16;;;2.76;100.00
13968;BME280;39536;52.198;9.920;2023-03-07T04:14:31;98618.69;;;2.84;100.00
13968;BME280;39536;52.198;9.920;2023-03-07T04:16:57;98612.75;;;2.80;100.00
13968;BME280;39536;52.198;9.920;2023-03-07T04:19:24;98616.03;;;2.85;100.00
13968;BME280;39536;52.198;9.920;2023-03-07T04:21:51;98616.78;;;2.89;100.00
13968;BME280;39536;52.198;9.920;2023-03-07T04:24:17;98615.94;;;2.88;100.00
13968;BME280;39536;52.198;9.920;2023-03-07T04:26:44;98604.81;;;2.88;100.00
13968;BME280;39536;52.198;9.920;2023-03-07T04:29:12;98614.16;;;2.90;100.00
13968;BME280;39536;52.198;9.920;2023-03-07T04:31:39;98605.34;;;2.97;100.00
13968;BME280;39536;52.198;9.920;2023-03-07T04:34:05;98602.78;;;2.97;100.00
13968;BME280;39536;52.198;9.920;2023-03-07T04:36:32;98601.69;;;3.05;100.00
13968;BME280;39536;52.198;9.920;2023-03-07T04:38:59;98595.88;;;2.99;100.00
13968;BME280;39536;52.198;9.920;2023-03-07T04:41:25;98586.16;;;3.08;100.00
13968;BME280;39536;52.198;9.920;2023-03-07T04:43:52;98573.56;;;3.00;100.00
13968;BME280;39536;52.198;9.920;2023-03-07T04:46:20;98578.44;;;3.08;100.00
13968;BME280;39536;52.198;9.920;2023-03-07T04:48:47;98574.88;;;3.12;100.00
13968;BME280;39536;52.198;9.920;2023-03-07T04:51:13;98577.25;;;3.18;100.00
13968;BME280;39536;52.198;9.920;2023-03-07T04:53:40;98576.44;;;3.16;100.00
13968;BME280;39536;52.198;9.920;2023-03-07T04:56:08;98563.47;;;3.19;100.00
13968;BME280;39536;52.198;9.920;2023-03-07T04:58:35;98567.72;;;3.20;100.00
13968;BME280;39536;52.198;9.920;2023-03-07T05:01:03;98565.00;;;3.24;100.00
13968;BME280;39536;52.198;9.920;2023-03-07T05:03:32;98564.84;;;3.29;100.00
13968;BME280;39536;52.198;9.920;2023-03-07T05:06:00;98558.03;;;3.28;100.00
13968;BME280;39536;52.198;9.920;2023-03-07T05:08:27;98556.22;;;3.30;100.00
13968;BME280;39536;52.198;9.920;2023-03-07T05:10:54;98562.38;;;3.26;100.00
13968;BME280;39536;52.198;9.920;2023-03-07T05:13:21;98555.28;;;3.33;100.00
13968;BME280;39536;52.198;9.920;2023-03-07T05:15:49;98555.13;;;3.37;100.00
13968;BME280;39536;52.198;9.920;2023-03-07T05:18:16;98556.69;;;3.41;100.00
13968;BME280;39536;52.198;9.920;2023-03-07T05:20:44;98545.59;;;3.39;100.00
13968;BME280;39536;52.198;9.920;2023-03-07T05:23:11;98554.22;;;3.38;100.00
13968;BME280;39536;52.198;9.920;2023-03-07T05:25:37;98552.56;;;3.37;100.00
13968;BME280;39536;52.198;9.920;2023-03-07T05:28:04;98555.06;;;3.39;100.00
13968;BME280;39536;52.198;9.920;2023-03-07T05:30:31;98552.38;;;3.42;100.00
13968;BME280;39536;52.198;9.920;2023-03-07T05:32:57;98552.34;;;3.43;100.00
13968;BME280;39536;52.198;9.920;2023-03-07T05:35:24;98549.69;;;3.45;100.00
13968;BME280;39536;52.198;9.920;2023-03-07T05:37:52;98567.66;;;3.46;100.00
13968;BME280;39536;52.198;9.920;2023-03-07T05:40:19;98559.00;;;3.49;100.00
13968;BME280;39536;52.198;9.920;2023-03-07T05:42:45;98566.97;;;3.41;100.00
13968;BME280;39536;52.198;9.920;2023-03-07T05:45:12;98571.28;;;3.41;100.00
13968;BME280;39536;52.198;9.920;2023-03-07T05:47:39;98575.00;;;3.34;100.00
13968;BME280;39536;52.198;9.920;2023-03-07T05:50:07;98587.09;;;3.30;100.00
13968;BME280;39536;52.198;9.920;2023-03-07T05:52:34;98599.28;;;3.25;100.00
13968;BME280;39536;52.198;9.920;2023-03-07T05:55:02;98593.22;;;3.01;100.00
13968;BME280;39536;52.198;9.920;2023-03-07T05:57:29;98602.66;;;2.75;100.00
13968;BME280;39536;52.198;9.920;2023-03-07T05:59:56;98606.50;;;2.62;100.00
13968;BME280;39536;52.198;9.920;2023-03-07T06:02:23;98616.34;;;2.49;100.00
13968;BME280;39536;52.198;9.920;2023-03-07T06:04:49;98610.00;;;2.31;100.00
13968;BME280;39536;52.198;9.920;2023-03-07T06:07:16;98620.78;;;2.15;100.00
13968;BME280;39536;52.198;9.920;2023-03-07T06:09:42;98621.91;;;2.06;100.00
13968;BME280;39536;52.198;9.920;2023-03-07T06:12:10;98626.25;;;2.04;100.00
13968;BME280;39536;52.198;9.920;2023-03-07T06:14:37;98617.06;;;1.95;100.00
13968;BME280;39536;52.198;9.920;2023-03-07T06:17:04;98633.66;;;1.83;100.00
13968;BME280;39536;52.198;9.920;2023-03-07T06:19:31;98629.25;;;1.89;100.00
13968;BME280;39536;52.198;9.920;2023-03-07T06:21:58;98632.66;;;1.89;100.00
13968;BME280;39536;52.198;9.920;2023-03-07T06:24:24;98631.06;;;1.85;100.00
13968;BME280;39536;52.198;9.920;2023-03-07T06:26:51;98637.00;;;1.87;100.00
13968;BME280;39536;52.198;9.920;2023-03-07T06:29:19;98640.75;;;1.75;100.00
13968;BME280;39536;52.198;9.920;2023-03-07T06:31:46;98643.41;;;1.72;100.00
13968;BME280;39536;52.198;9.920;2023-03-07T06:34:12;98637.19;;;1.79;100.00
13968;BME280;39536;52.198;9.920;2023-03-07T06:36:39;98636.19;;;1.85;100.00
13968;BME280;39536;52.198;9.920;2023-03-07T06:39:06;98635.28;;;1.86;100.00
13968;BME280;39536;52.198;9.920;2023-03-07T06:41:32;98642.72;;;1.97;100.00
13968;BME280;39536;52.198;9.920;2023-03-07T06:43:59;98639.97;;;2.03;100.00
13968;BME280;39536;52.198;9.920;2023-03-07T06:46:27;98643.41;;;2.02;100.00
13968;BME280;39536;52.198;9.920;2023-03-07T06:48:54;98642.38;;;2.09;100.00
13968;BME280;39536;52.198;9.920;2023-03-07T06:51:20;98648.06;;;2.19;100.00
13968;BME280;39536;52.198;9.920;2023-03-07T06:53:47;98654.84;;;2.21;100.00
13968;BME280;39536;52.198;9.920;2023-03-07T06:56:13;98642.84;;;2.22;100.00
13968;BME280;39536;52.198;9.920;2023-03-07T06:58:40;98644.44;;;2.26;100.00
13968;BME280;39536;52.198;9.920;2023-03-07T07:01:07;98645.31;;;2.25;100.00
13968;BME280;39536;52.198;9.920;2023-03-07T07:03:41;98640.22;;;2.23;100.00
13968;BME280;39536;52.198;9.920;2023-03-07T07:06:08;98646.84;;;2.30;100.00
13968;BME280;39536;52.198;9.920;2023-03-07T07:08:34;98648.50;;;2.33;100.00
13968;BME280;39536;52.198;9.920;2023-03-07T07:11:01;98648.47;;;2.35;100.00
13968;BME280;39536;52.198;9.920;2023-03-07T07:13:27;98653.69;;;2.31;100.00
13968;BME280;39536;52.198;9.920;2023-03-07T07:15:54;98638.97;;;2.37;100.00
13968;BME280;39536;52.198;9.920;2023-03-07T07:18:21;98646.09;;;2.27;100.00
13968;BME280;39536;52.198;9.920;2023-03-07T07:20:53;98646.81;;;2.32;100.00
13968;BME280;39536;52.198;9.920;2023-03-07T07:23:20;98655.03;;;2.15;100.00
13968;BME280;39536;52.198;9.920;2023-03-07T07:25:46;98652.22;;;2.23;100.00
13968;BME280;39536;52.198;9.920;2023-03-07T07:28:13;98653.03;;;2.25;100.00
13968;BME280;39536;52.198;9.920;2023-03-07T07:30:40;98645.50;;;2.19;100.00
13968;BME280;39536;52.198;9.920;2023-03-07T07:33:06;98641.31;;;2.15;100.00
13968;BME280;39536;52.198;9.920;2023-03-07T07:35:33;98640.19;;;2.25;100.00
13968;BME280;39536;52.198;9.920;2023-03-07T07:38:00;98644.84;;;2.12;100.00
13968;BME280;39536;52.198;9.920;2023-03-07T07:40:27;98639.47;;;2.20;100.00
13968;BME280;39536;52.198;9.920;2023-03-07T07:42:54;98631.81;;;2.18;100.00
13968;BME280;39536;52.198;9.920;2023-03-07T07:45:21;98637.88;;;2.16;100.00
13968;BME280;39536;52.198;9.920;2023-03-07T07:47:47;98634.59;;;2.11;100.00
13968;BME280;39536;52.198;9.920;2023-03-07T07:50:15;98634.41;;;2.18;100.00
13968;BME280;39536;52.198;9.920;2023-03-07T07:52:41;98636.06;;;2.19;100.00
13968;BME280;39536;52.198;9.920;2023-03-07T07:55:10;98638.84;;;2.12;100.00
13968;BME280;39536;52.198;9.920;2023-03-07T07:57:37;98642.19;;;2.15;100.00
13968;BME280;39536;52.198;9.920;2023-03-07T08:00:06;98637.97;;;2.13;100.00
13968;BME280;39536;52.198;9.920;2023-03-07T08:02:33;98644.88;;;2.11;100.00
13968;BME280;39536;52.198;9.920;2023-03-07T08:05:00;98645.94;;;2.03;100.00
13968;BME280;39536;52.198;9.920;2023-03-07T08:07:26;98641.38;;;2.13;100.00
13968;BME280;39536;52.198;9.920;2023-03-07T08:09:53;98642.31;;;2.11;100.00
13968;BME280;39536;52.198;9.920;2023-03-07T08:12:20;98640.84;;;2.02;100.00
13968;BME280;39536;52.198;9.920;2023-03-07T08:14:47;98643.75;;;1.90;100.00
13968;BME280;39536;52.198;9.920;2023-03-07T08:17:13;98635.94;;;1.94;100.00
13968;BME280;39536;52.198;9.920;2023-03-07T08:19:40;98641.88;;;1.96;100.00
13968;BME280;39536;52.198;9.920;2023-03-07T08:22:06;98638.00;;;1.81;100.00
13968;BME280;39536;52.198;9.920;2023-03-07T08:24:32;98639.59;;;1.85;100.00
13968;BME280;39536;52.198;9.920;2023-03-07T08:26:59;98649.06;;;1.83;100.00
13968;BME280;39536;52.198;9.920;2023-03-07T08:29:27;98650.34;;;1.69;100.00
13968;BME280;39536;52.198;9.920;2023-03-07T08:31:54;98656.47;;;1.63;100.00
13968;BME280;39536;52.198;9.920;2023-03-07T08:34:20;98651.31;;;1.32;100.00
13968;BME280;39536;52.198;9.920;2023-03-07T08:36:47;98651.94;;;1.40;100.00
13968;BME280;39536;52.198;9.920;2023-03-07T08:39:13;98656.28;;;1.38;100.00
13968;BME280;39536;52.198;9.920;2023-03-07T08:41:40;98657.94;;;1.41;100.00
13968;BME280;39536;52.198;9.920;2023-03-07T08:44:06;98654.97;;;1.56;100.00
13968;BME280;39536;52.198;9.920;2023-03-07T08:46:34;98660.34;;;1.47;100.00
13968;BME280;39536;52.198;9.920;2023-03-07T08:49:01;98665.69;;;1.37;100.00
13968;BME280;39536;52.198;9.920;2023-03-07T08:51:27;98686.41;;;1.30;100.00
13968;BME280;39536;52.198;9.920;2023-03-07T08:53:54;98655.00;;;1.22;100.00
13968;BME280;39536;52.198;9.920;2023-03-07T08:56:20;98665.03;;;1.29;100.00
13968;BME280;39536;52.198;9.920;2023-03-07T08:58:47;98654.75;;;1.31;100.00
13968;BME280;39536;52.198;9.920;2023-03-07T09:01:13;98663.97;;;1.38;100.00
13968;BME280;39536;52.198;9.920;2023-03-07T09:03:41;98669.41;;;1.26;100.00
13968;BME280;39536;52.198;9.920;2023-03-07T09:06:14;98675.50;;;1.22;100.00
13968;BME280;39536;52.198;9.920;2023-03-07T09:08:40;98676.66;;;1.08;100.00
13968;BME280;39536;52.198;9.920;2023-03-07T09:11:07;98674.91;;;1.10;100.00
13968;BME280;39536;52.198;9.920;2023-03-07T09:13:34;98679.22;;;1.10;100.00
13968;BME280;39536;52.198;9.920;2023-03-07T09:16:03;98681.06;;;1.03;100.00
13968;BME280;39536;52.198;9.920;2023-03-07T09:18:29;98665.84;;;0.97;100.00
13968;BME280;39536;52.198;9.920;2023-03-07T09:20:59;98675.94;;;1.03;100.00
13968;BME280;39536;52.198;9.920;2023-03-07T09:23:25;98673.16;;;1.12;100.00
13968;BME280;39536;52.198;9.920;2023-03-07T09:25:52;98671.16;;;1.24;100.00
13968;BME280;39536;52.198;9.920;2023-03-07T09:28:18;98670.03;;;1.34;100.00
13968;BME280;39536;52.198;9.920;2023-03-07T09:30:45;98667.16;;;1.46;100.00
13968;BME280;39536;52.198;9.920;2023-03-07T09:33:11;98665.22;;;1.56;100.00
13968;BME280;39536;52.198;9.920;2023-03-07T09:35:37;98667.09;;;1.49;100.00
13968;BME280;39536;52.198;9.920;2023-03-07T09:38:05;98661.94;;;1.51;100.00
13968;BME280;39536;52.198;9.920;2023-03-07T09:40:32;98669.47;;;1.57;100.00
13968;BME280;39536;52.198;9.920;2023-03-07T09:43:04;98667.50;;;1.67;100.00
13968;BME280;39536;52.198;9.920;2023-03-07T09:45:38;98668.47;;;1.63;100.00
13968;BME280;39536;52.198;9.920;2023-03-07T09:48:34;98670.53;;;1.81;100.00
13968;BME280;39536;52.198;9.920;2023-03-07T09:51:13;98660.72;;;1.64;100.00
13968;BME280;39536;52.198;9.920;2023-03-07T09:53:45;98673.63;;;1.61;100.00
13968;BME280;39536;52.198;9.920;2023-03-07T09:56:15;98665.97;;;1.59;100.00
13968;BME280;39536;52.198;9.920;2023-03-07T09:58:49;98672.03;;;1.57;100.00
13968;BME280;39536;52.198;9.920;2023-03-07T10:01:20;98668.63;;;1.56;100.00
13968;BME280;39536;52.198;9.920;2023-03-07T10:03:51;98663.81;;;1.44;100.00
13968;BME280;39536;52.198;9.920;2023-03-07T10:06:26;98663.00;;;1.42;100.00
13968;BME280;39536;52.198;9.920;2023-03-07T10:08:56;98667.91;;;1.51;100.00
13968;BME280;39536;52.198;9.920;2023-03-07T10:11:32;98664.59;;;1.46;100.00
13968;BME280;39536;52.198;9.920;2023-03-07T10:14:16;98663.69;;;1.49;100.00
13968;BME280;39536;52.198;9.920;2023-03-07T10:16:50;98673.81;;;1.21;100.00
13968;BME280;39536;52.198;9.920;2023-03-07T10:19:27;98662.69;;;1.22;100.00
13968;BME280;39536;52.198;9.920;2023-03-07T10:21:59;98673.25;;;1.09;100.00
13968;BME280;39536;52.198;9.920;2023-03-07T10:24:37;98679.59;;;0.93;100.00
13968;BME280;39536;52.198;9.920;2023-03-07T10:27:10;98682.22;;;0.91;100.00
13968;BME280;39536;52.198;9.920;2023-03-07T10:29:40;98681.38;;;0.91;100.00
13968;BME280;39536;52.198;9.920;2023-03-07T10:32:22;98671.31;;;0.82;100.00
13968;BME280;39536;52.198;9.920;2023-03-07T10:34:56;98690.25;;;0.76;100.00
13968;BME280;39536;52.198;9.920;2023-03-07T10:37:32;98681.09;;;0.66;100.00
13968;BME280;39536;52.198;9.920;2023-03-07T10:40:02;98686.97;;;0.69;100.00
13968;BME280;39536;52.198;9.920;2023-03-07T10:42:34;98680.97;;;0.71;100.00
13968;BME280;39536;52.198;9.920;2023-03-07T10:45:04;98676.81;;;0.66;100.00
13968;BME280;39536;52.198;9.920;2023-03-07T10:47:31;98675.28;;;0.59;100.00
13968;BME280;39536;52.198;9.920;2023-03-07T10:50:04;98680.09;;;0.72;100.00
13968;BME280;39536;52.198;9.920;2023-03-07T10:52:38;98679.94;;;0.79;100.00
13968;BME280;39536;52.198;9.920;2023-03-07T10:55:31;98687.34;;;0.90;100.00
13968;BME280;39536;52.198;9.920;2023-03-07T10:58:12;98683.38;;;0.78;100.00
13968;BME280;39536;52.198;9.920;2023-03-07T11:00:38;98668.63;;;0.88;100.00
13968;BME280;39536;52.198;9.920;2023-03-07T11:03:21;98685.72;;;0.87;100.00
13968;BME280;39536;52.198;9.920;2023-03-07T11:05:48;98675.41;;;0.90;100.00
13968;BME280;39536;52.198;9.920;2023-03-07T11:08:28;98673.59;;;0.94;100.00
13968;BME280;39536;52.198;9.920;2023-03-07T11:10:57;98672.56;;;1.01;100.00
13968;BME280;39536;52.198;9.920;2023-03-07T11:13:23;98671.03;;;0.94;100.00
13968;BME280;39536;52.198;9.920;2023-03-07T11:15:51;98663.13;;;1.03;100.00
13968;BME280;39536;52.198;9.920;2023-03-07T11:18:27;98663.81;;;1.10;100.00
13968;BME280;39536;52.198;9.920;2023-03-07T11:20:55;98665.78;;;1.00;100.00
13968;BME280;39536;52.198;9.920;2023-03-07T11:23:23;98665.66;;;1.05;100.00
13968;BME280;39536;52.198;9.920;2023-03-07T11:25:52;98666.31;;;1.13;100.00
13968;BME280;39536;52.198;9.920;2023-03-07T11:28:28;98674.00;;;1.13;100.00
13968;BME280;39536;52.198;9.920;2023-03-07T11:31:09;98663.91;;;1.07;100.00
13968;BME280;39536;52.198;9.920;2023-03-07T11:33:46;98665.97;;;1.27;100.00
13968;BME280;39536;52.198;9.920;2023-03-07T11:36:14;98665.88;;;1.30;100.00
13968;BME280;39536;52.198;9.920;2023-03-07T11:38:50;98661.41;;;1.38;100.00
13968;BME280;39536;52.198;9.920;2023-03-07T11:41:24;98661.13;;;1.49;100.00
13968;BME280;39536;52.198;9.920;2023-03-07T11:44:11;98664.50;;;1.49;100.00
13968;BME280;39536;52.198;9.920;2023-03-07T11:46:53;98660.13;;;1.54;100.00
13968;BME280;39536;52.198;9.920;2023-03-07T11:49:33;98673.41;;;1.36;100.00
13968;BME280;39536;52.198;9.920;2023-03-07T11:54:59;98673.56;;;1.30;100.00
13968;BME280;39536;52.198;9.920;2023-03-07T11:57:45;98677.84;;;1.31;100.00
13968;BME280;39536;52.198;9.920;2023-03-07T12:00:28;98670.66;;;1.44;100.00
13968;BME280;39536;52.198;9.920;2023-03-07T12:03:25;98669.88;;;1.40;100.00
13968;BME280;39536;52.198;9.920;2023-03-07T12:06:07;98675.81;;;1.44;100.00
13968;BME280;39536;52.198;9.920;2023-03-07T12:08:42;98680.72;;;1.51;100.00
13968;BME280;39536;52.198;9.920;2023-03-07T12:11:25;98675.72;;;1.47;100.00
13968;BME280;39536;52.198;9.920;2023-03-07T12:14:02;98681.63;;;1.50;100.00
13968;BME280;39536;52.198;9.920;2023-03-07T12:16:41;98677.47;;;1.45;100.00
13968;BME280;39536;52.198;9.920;2023-03-07T12:19:21;98679.00;;;1.52;100.00
13968;BME280;39536;52.198;9.920;2023-03-07T12:22:10;98684.34;;;1.43;100.00
13968;BME280;39536;52.198;9.920;2023-03-07T12:24:45;98672.03;;;1.57;100.00
13968;BME280;39536;52.198;9.920;2023-03-07T12:27:19;98671.22;;;1.55;100.00
13968;BME280;39536;52.198;9.920;2023-03-07T12:29:52;98664.16;;;1.63;100.00
13968;BME280;39536;52.198;9.920;2023-03-07T12:32:25;98652.03;;;1.68;100.00
13968;BME280;39536;52.198;9.920;2023-03-07T12:34:54;98662.53;;;1.60;100.00
13968;BME280;39536;52.198;9.920;2023-03-07T12:37:26;98659.13;;;1.60;100.00
13968;BME280;39536;52.198;9.920;2023-03-07T12:39:58;98657.72;;;1.79;100.00
13968;BME280;39536;52.198;9.920;2023-03-07T12:42:30;98663.84;;;1.75;100.00
13968;BME280;39536;52.198;9.920;2023-03-07T12:45:03;98652.59;;;1.79;100.00
13968;BME280;39536;52.198;9.920;2023-03-07T12:47:47;98655.97;;;1.81;100.00
13968;BME280;39536;52.198;9.920;2023-03-07T12:50:18;98652.41;;;1.87;100.00
13968;BME280;39536;52.198;9.920;2023-03-07T12:52:49;98654.03;;;1.90;100.00
13968;BME280;39536;52.198;9.920;2023-03-07T12:55:22;98660.88;;;1.89;100.00
13968;BME280;39536;52.198;9.920;2023-03-07T12:57:56;98660.22;;;1.82;100.00
13968;BME280;39536;52.198;9.920;2023-03-07T13:00:25;98664.34;;;1.88;100.00
13968;BME280;39536;52.198;9.920;2023-03-07T13:02:59;98676.38;;;1.86;100.00
13968;BME280;39536;52.198;9.920;2023-03-07T13:05:26;98661.69;;;1.91;100.00
13968;BME280;39536;52.198;9.920;2023-03-07T13:07:54;98655.09;;;1.82;100.00
13968;BME280;39536;52.198;9.920;2023-03-07T13:10:23;98664.59;;;1.79;100.00
13968;BME280;39536;52.198;9.920;2023-03-07T13:12:51;98662.66;;;1.87;100.00
13968;BME280;39536;52.198;9.920;2023-03-07T13:16:00;98663.50;;;1.88;100.00